Oak Ridge, New Jersey
Current Conditions -  °F | °C
As of 12:53 AM on Wednesday 22 Oct 2014 (Local Time) from KFWN Reporting Station
Overcast Overcast  
Wind Chill: 55°   Ceiling: 700
Heat Index: 55°   Visibility: 10mi
Dew Point: 50°   Wind: 8mph
Humidity: 83%   Direction: 30°NNE
Pressure: 29.93"   Gusts: NA
Location:  41.05°N, 74.49°W
Report Text: KFWN 220453Z AUTO 03007KT 10SM OVC007 13/10 A2993 RMK AO2 SLP135 T01280100 401560089
Loading
Personal Weather Stations






























Interactive Weather Map
Tropical Storm Tracking
New forecast layout! Learn more

10-Day Weather Forecast

Advertisements
Track Severe Weather on mobile